Time;durP1;ratioP1;P1;durP2;ratioP2;P2;SDS_P1;SDS_P2;PMS_P1;PMS_P2;Temp;Humidity;BMP_temperature;BMP_pressure;BME280_temperature;BME280_humidity;BME280_pressure;Samples;Min_cycle;Max_cycle;Signal;HPM_P1;HPM_P2
2024/03/10 00:01:35;;;;;;;69.57;23.83;;;4.70;100.00;;;;;;5082867;28;20066;-75
2024/03/10 00:04:02;;;;;;;71.95;25.63;;;4.70;100.00;;;;;;5083108;28;20059;-75
2024/03/10 00:06:28;;;;;;;73.95;23.38;;;4.60;100.00;;;;;;5086203;28;20056;-77
2024/03/10 00:08:55;;;;;;;67.25;22.75;;;4.60;100.00;;;;;;5084737;28;20529;-75
2024/03/10 00:11:22;;;;;;;73.55;25.55;;;4.60;100.00;;;;;;5085196;28;20093;-75
2024/03/10 00:13:49;;;;;;;69.90;24.40;;;4.60;100.00;;;;;;5076056;28;20047;-75
2024/03/10 00:16:16;;;;;;;78.25;24.08;;;4.50;100.00;;;;;;5090888;28;20047;-75
2024/03/10 00:18:43;;;;;;;80.45;25.23;;;4.50;100.00;;;;;;5082414;28;20044;-75
2024/03/10 00:21:10;;;;;;;70.28;25.88;;;4.60;100.00;;;;;;5083703;28;20105;-75
2024/03/10 00:23:37;;;;;;;65.15;23.15;;;4.60;100.00;;;;;;5083986;28;20044;-75
2024/03/10 00:26:05;;;;;;;72.75;25.98;;;4.60;100.00;;;;;;5084814;28;20048;-75
2024/03/10 00:28:36;;;;;;;68.40;24.58;;;4.60;100.00;;;;;;5083312;28;20052;-75
2024/03/10 00:31:03;;;;;;;69.82;24.20;;;4.70;100.00;;;;;;5082810;28;20682;-75
2024/03/10 00:33:30;;;;;;;66.95;24.85;;;4.80;100.00;;;;;;5083400;28;20055;-75
2024/03/10 00:35:57;;;;;;;71.70;24.50;;;4.90;100.00;;;;;;5086664;28;20056;-75
2024/03/10 00:38:27;;;;;;;69.00;24.48;;;4.90;100.00;;;;;;5086063;28;20044;-75
2024/03/10 00:40:54;;;;;;;70.85;24.02;;;4.90;100.00;;;;;;5084674;28;20765;-75
2024/03/10 00:43:22;;;;;;;70.53;25.77;;;4.90;100.00;;;;;;5082637;28;20047;-75
2024/03/10 00:45:50;;;;;;;62.72;22.33;;;4.90;100.00;;;;;;5085938;28;20040;-75
2024/03/10 00:48:20;;;;;;;65.22;22.80;;;4.90;100.00;;;;;;5085632;28;20125;-75
2024/03/10 00:50:47;;;;;;;76.93;24.85;;;4.90;100.00;;;;;;5085830;28;20040;-75
2024/03/10 00:53:14;;;;;;;70.60;26.20;;;4.90;100.00;;;;;;5084311;28;20052;-75
2024/03/10 00:55:44;;;;;;;68.68;25.17;;;4.90;100.00;;;;;;5085560;28;20044;-75
2024/03/10 00:58:12;;;;;;;74.30;27.05;;;5.00;100.00;;;;;;5078778;28;20052;-75
2024/03/10 01:00:38;;;;;;;62.83;23.98;;;5.00;100.00;;;;;;5086160;28;20507;-75
2024/03/10 01:03:10;;;;;;;71.45;26.20;;;5.00;100.00;;;;;;5077608;28;20047;-75
2024/03/10 01:05:36;;;;;;;65.00;24.50;;;5.00;100.00;;;;;;5085572;28;20152;-75
2024/03/10 01:08:04;;;;;;;72.22;25.45;;;5.00;100.00;;;;;;5084308;28;20059;-75
2024/03/10 01:10:31;;;;;;;68.75;24.05;;;4.90;100.00;;;;;;5081128;28;20094;-75
2024/03/10 01:12:58;;;;;;;69.15;25.35;;;4.90;100.00;;;;;;5080613;28;20044;-75
2024/03/10 01:15:25;;;;;;;72.50;24.35;;;4.90;100.00;;;;;;5081415;28;20056;-75
2024/03/10 01:17:52;;;;;;;69.63;26.25;;;4.90;100.00;;;;;;5083104;28;20044;-75
2024/03/10 01:20:20;;;;;;;71.45;24.40;;;4.90;100.00;;;;;;5083802;28;20050;-75
2024/03/10 01:22:47;;;;;;;77.07;25.45;;;4.90;100.00;;;;;;5080378;28;20058;-75
2024/03/10 01:25:14;;;;;;;68.30;24.67;;;4.90;100.00;;;;;;5083816;28;20120;-75
2024/03/10 01:27:42;;;;;;;70.80;24.80;;;5.00;100.00;;;;;;5082793;28;20091;-75
2024/03/10 01:30:10;;;;;;;72.53;25.08;;;5.00;100.00;;;;;;5079198;28;20060;-75
2024/03/10 01:32:37;;;;;;;72.40;25.52;;;5.10;100.00;;;;;;5084179;28;20097;-75
2024/03/10 01:35:05;;;;;;;67.88;24.92;;;5.10;100.00;;;;;;5084356;28;20058;-75
2024/03/10 01:37:33;;;;;;;70.78;25.77;;;5.10;100.00;;;;;;5083704;28;20072;-75
2024/03/10 01:40:04;;;;;;;74.32;26.58;;;5.10;100.00;;;;;;5091976;28;20044;-75
2024/03/10 01:42:32;;;;;;;75.88;26.55;;;5.20;100.00;;;;;;5079455;28;20070;-75
2024/03/10 01:45:00;;;;;;;63.65;23.63;;;5.20;100.00;;;;;;5080478;28;20695;-75
2024/03/10 01:47:27;;;;;;;65.13;25.55;;;5.10;100.00;;;;;;5083883;28;20112;-75
2024/03/10 01:52:49;;;;;;;75.75;25.15;;;5.20;100.00;;;;;;5033681;23;20050;-75
2024/03/10 01:55:18;;;;;;;70.65;25.08;;;5.20;100.00;;;;;;4984714;28;20453;-74
2024/03/10 01:57:47;;;;;;;66.50;24.05;;;5.20;100.00;;;;;;4985288;28;20097;-75
2024/03/10 02:00:15;;;;;;;73.60;24.48;;;5.20;100.00;;;;;;4998794;28;20053;-75
2024/03/10 02:02:42;;;;;;;77.90;26.65;;;5.20;100.00;;;;;;4984586;28;20462;-75
2024/03/10 02:05:09;;;;;;;80.53;26.90;;;5.20;100.00;;;;;;4984516;28;20054;-75
2024/03/10 02:07:36;;;;;;;76.85;26.08;;;5.30;100.00;;;;;;4982828;28;20160;-75
2024/03/10 02:10:06;;;;;;;76.85;24.50;;;5.20;100.00;;;;;;4987606;28;20132;-75
2024/03/10 02:12:35;;;;;;;81.13;25.67;;;5.20;100.00;;;;;;4985437;28;20051;-75
2024/03/10 02:15:03;;;;;;;71.35;25.98;;;5.10;100.00;;;;;;4980190;28;20061;-75
2024/03/10 02:17:30;;;;;;;70.75;25.83;;;5.10;100.00;;;;;;4983620;28;21382;-75
2024/03/10 02:19:57;;;;;;;74.13;25.98;;;5.10;100.00;;;;;;4986288;28;20074;-75
2024/03/10 02:22:26;;;;;;;75.53;24.88;;;5.10;100.00;;;;;;4984189;28;20041;-75
2024/03/10 02:24:59;;;;;;;65.90;26.42;;;5.10;100.00;;;;;;4977236;28;20130;-75
2024/03/10 02:27:28;;;;;;;70.13;26.60;;;5.10;100.00;;;;;;4983365;28;20519;-75
2024/03/10 02:49:14;;;;;;;67.55;26.17;;;5.30;100.00;;;;;;4978903;28;20053;-75
2024/03/10 02:51:42;;;;;;;65.97;25.90;;;5.30;100.00;;;;;;4983571;28;20062;-75
2024/03/10 02:54:08;;;;;;;72.53;27.42;;;5.30;100.00;;;;;;4982702;28;20479;-75
2024/03/10 02:56:35;;;;;;;64.72;24.80;;;5.30;100.00;;;;;;4988012;28;20086;-75
2024/03/10 02:59:03;;;;;;;77.35;26.77;;;5.30;100.00;;;;;;4988449;28;20068;-75
2024/03/10 03:01:30;;;;;;;77.75;27.73;;;5.20;100.00;;;;;;4988401;28;20411;-75
2024/03/10 03:03:57;;;;;;;80.57;27.40;;;5.20;100.00;;;;;;4985399;28;20141;-75
2024/03/10 03:06:24;;;;;;;77.53;25.27;;;5.20;100.00;;;;;;4988379;28;20057;-75
2024/03/10 03:08:51;;;;;;;79.57;25.45;;;5.10;100.00;;;;;;4987520;28;20722;-75
2024/03/10 03:11:18;;;;;;;72.85;24.80;;;5.10;100.00;;;;;;4984030;28;20129;-75
2024/03/10 03:13:45;;;;;;;70.13;26.13;;;5.00;100.00;;;;;;4986592;28;20086;-75
2024/03/10 03:16:12;;;;;;;65.07;24.23;;;4.90;100.00;;;;;;4988358;28;20188;-74
2024/03/10 03:18:40;;;;;;;76.50;26.17;;;4.80;100.00;;;;;;4988164;28;20086;-75
2024/03/10 03:21:08;;;;;;;83.82;27.85;;;4.80;100.00;;;;;;4988625;28;20050;-75
2024/03/10 03:23:34;;;;;;;78.80;27.38;;;4.70;100.00;;;;;;4986626;28;20108;-75
2024/03/10 03:26:02;;;;;;;75.95;25.83;;;4.70;100.00;;;;;;4986340;28;20088;-75
2024/03/10 03:28:29;;;;;;;75.25;25.50;;;4.60;100.00;;;;;;4986997;28;20208;-74
2024/03/10 03:30:56;;;;;;;79.68;26.67;;;4.60;100.00;;;;;;4987504;28;20056;-75
2024/03/10 03:33:23;;;;;;;76.03;26.73;;;4.50;100.00;;;;;;4987326;28;20065;-75
2024/03/10 03:35:50;;;;;;;77.28;25.80;;;4.50;100.00;;;;;;4987223;28;20137;-75
2024/03/10 03:38:17;;;;;;;79.45;27.75;;;4.40;100.00;;;;;;4986226;28;20542;-75
2024/03/10 03:40:44;;;;;;;81.40;27.65;;;4.40;100.00;;;;;;4987192;28;20130;-75
2024/03/10 03:43:10;;;;;;;76.75;26.50;;;4.30;100.00;;;;;;4986973;28;20044;-74
2024/03/10 03:45:37;;;;;;;77.07;27.13;;;4.30;100.00;;;;;;4987932;28;20108;-74
2024/03/10 03:48:04;;;;;;;82.28;27.77;;;4.30;100.00;;;;;;4987979;28;20116;-75
2024/03/10 03:50:32;;;;;;;68.03;25.00;;;4.30;100.00;;;;;;4986463;28;20058;-74
2024/03/10 03:53:00;;;;;;;74.18;25.38;;;4.30;100.00;;;;;;4987412;28;20061;-74
2024/03/10 03:55:28;;;;;;;76.28;27.10;;;4.30;100.00;;;;;;4986018;28;20050;-75
2024/03/10 03:57:55;;;;;;;84.65;27.60;;;4.30;100.00;;;;;;4985265;28;20501;-74
2024/03/10 04:00:23;;;;;;;73.65;26.77;;;4.30;100.00;;;;;;4985067;28;20053;-74
2024/03/10 04:02:50;;;;;;;72.57;26.23;;;4.30;100.00;;;;;;4986990;28;20049;-74
2024/03/10 04:05:17;;;;;;;79.28;26.88;;;4.30;100.00;;;;;;4987667;28;20209;-75
2024/03/10 04:07:44;;;;;;;76.38;25.05;;;4.30;100.00;;;;;;4986613;28;20046;-75
2024/03/10 04:10:11;;;;;;;78.85;28.05;;;4.30;100.00;;;;;;4986591;28;20054;-74
2024/03/10 04:16:05;;;;;;;75.25;26.45;;;4.30;100.00;;;;;;5095958;23;20085;-75
2024/03/10 04:18:34;;;;;;;77.28;27.60;;;4.30;100.00;;;;;;5003734;28;20659;-74
2024/03/10 04:21:01;;;;;;;73.13;26.83;;;4.30;100.00;;;;;;5004407;28;20095;-74
2024/03/10 04:23:28;;;;;;;76.07;26.20;;;4.30;100.00;;;;;;5006363;28;20046;-74
2024/03/10 04:25:55;;;;;;;78.40;25.63;;;4.20;100.00;;;;;;5006930;28;20427;-74
2024/03/10 04:28:22;;;;;;;73.72;26.52;;;4.20;100.00;;;;;;5006745;28;20083;-74
2024/03/10 04:30:49;;;;;;;79.78;25.55;;;4.10;100.00;;;;;;5006240;28;20797;-74
2024/03/10 04:33:16;;;;;;;76.18;26.55;;;4.10;100.00;;;;;;5004915;28;20050;-74
2024/03/10 04:35:43;;;;;;;72.25;25.35;;;4.00;100.00;;;;;;5005682;28;20157;-74
2024/03/10 04:38:10;;;;;;;70.45;24.80;;;4.00;100.00;;;;;;5004985;28;20050;-75
2024/03/10 04:40:37;;;;;;;72.75;25.73;;;3.90;100.00;;;;;;5005074;28;20119;-75
2024/03/10 04:43:04;;;;;;;81.70;27.10;;;3.90;100.00;;;;;;5006559;28;20041;-75
2024/03/10 04:45:31;;;;;;;75.07;25.83;;;3.80;100.00;;;;;;5004101;28;20061;-75
2024/03/10 04:47:57;;;;;;;71.88;24.50;;;3.80;100.00;;;;;;5006084;28;20092;-74
2024/03/10 04:50:24;;;;;;;77.53;25.83;;;3.80;100.00;;;;;;5002371;28;20077;-75
2024/03/10 04:52:52;;;;;;;73.45;26.30;;;3.80;100.00;;;;;;5005094;28;20050;-75
2024/03/10 04:55:20;;;;;;;69.47;24.70;;;3.80;100.00;;;;;;4998167;28;20046;-74
2024/03/10 04:57:48;;;;;;;74.68;27.23;;;3.80;100.00;;;;;;5004746;28;20100;-75
2024/03/10 05:00:18;;;;;;;74.13;26.83;;;3.80;100.00;;;;;;5002966;28;20053;-75
2024/03/10 05:02:46;;;;;;;71.32;26.27;;;3.80;100.00;;;;;;5003932;28;20046;-75
2024/03/10 05:05:13;;;;;;;70.28;24.83;;;3.80;100.00;;;;;;5002081;28;20038;-75
2024/03/10 05:07:41;;;;;;;79.18;25.50;;;3.70;100.00;;;;;;4998795;28;20074;-75
2024/03/10 05:10:08;;;;;;;80.07;27.80;;;3.70;100.00;;;;;;4999722;28;20061;-74
2024/03/10 05:12:38;;;;;;;82.70;26.27;;;3.70;100.00;;;;;;4999186;28;20133;-75
2024/03/10 05:15:05;;;;;;;70.72;24.70;;;3.60;100.00;;;;;;4995144;28;20050;-75
2024/03/10 05:17:32;;;;;;;73.00;26.05;;;3.60;100.00;;;;;;4997455;28;20049;-75
2024/03/10 05:20:00;;;;;;;73.88;26.45;;;3.50;100.00;;;;;;4998090;28;20069;-75
2024/03/10 05:22:27;;;;;;;77.03;26.13;;;3.60;100.00;;;;;;5003033;28;20057;-75
2024/03/10 05:24:54;;;;;;;73.70;25.63;;;3.50;100.00;;;;;;5003091;28;20042;-74
2024/03/10 05:27:21;;;;;;;77.15;25.75;;;3.50;100.00;;;;;;5004277;28;20065;-75
2024/03/10 05:29:48;;;;;;;79.65;26.23;;;3.50;100.00;;;;;;5001741;28;20115;-75
2024/03/10 05:32:14;;;;;;;84.53;26.38;;;3.40;100.00;;;;;;5004348;28;20541;-74
2024/03/10 05:34:41;;;;;;;73.18;25.52;;;3.30;100.00;;;;;;5004213;28;20668;-74
2024/03/10 05:37:09;;;;;;;80.00;25.02;;;3.20;100.00;;;;;;5004865;28;20465;-74
2024/03/10 05:39:36;;;;;;;69.18;24.85;;;3.20;100.00;;;;;;5002207;28;20053;-75
2024/03/10 05:42:05;;;;;;;67.22;25.88;;;3.10;100.00;;;;;;4999918;28;20046;-75
2024/03/10 05:44:33;;;;;;;77.35;25.73;;;3.00;100.00;;;;;;5004539;28;20565;-74
2024/03/10 05:47:00;;;;;;;71.78;25.23;;;3.00;100.00;;;;;;5005133;28;20527;-74
2024/03/10 05:49:29;;;;;;;68.32;24.30;;;3.00;100.00;;;;;;5004909;28;20049;-74
2024/03/10 05:51:55;;;;;;;68.50;25.55;;;2.90;100.00;;;;;;5001037;28;20049;-75
2024/03/10 05:54:22;;;;;;;73.90;24.10;;;2.90;100.00;;;;;;5004642;28;20127;-74
2024/03/10 05:56:49;;;;;;;73.22;25.48;;;2.80;100.00;;;;;;5004095;28;20054;-75
2024/03/10 05:59:16;;;;;;;70.55;25.00;;;2.80;100.00;;;;;;5003865;28;20053;-75
2024/03/10 06:01:45;;;;;;;65.68;25.17;;;2.90;100.00;;;;;;5002437;28;20054;-75
2024/03/10 06:04:12;;;;;;;78.03;25.27;;;2.80;100.00;;;;;;5002311;28;20140;-75
2024/03/10 06:06:39;;;;;;;69.57;24.85;;;2.80;100.00;;;;;;4996912;28;20049;-74
2024/03/10 06:09:07;;;;;;;76.85;26.00;;;2.80;100.00;;;;;;5004920;28;20155;-74
2024/03/10 06:11:34;;;;;;;74.60;26.10;;;2.90;100.00;;;;;;5001332;28;20062;-74
2024/03/10 06:14:01;;;;;;;78.20;24.45;;;2.90;100.00;;;;;;5002341;28;20049;-75
2024/03/10 06:16:29;;;;;;;65.18;23.27;;;2.90;100.00;;;;;;5002257;28;20050;-74
2024/03/10 06:26:57;;;;;;;66.07;24.15;;;3.00;100.00;;;;;;4996524;28;20049;-74
2024/03/10 06:29:24;;;;;;;69.03;26.05;;;3.00;100.00;;;;;;5002616;28;20667;-74
2024/03/10 06:31:53;;;;;;;73.55;25.52;;;3.10;100.00;;;;;;5004521;28;20156;-75
2024/03/10 06:34:19;;;;;;;66.32;24.95;;;3.10;100.00;;;;;;5004361;28;20504;-74
2024/03/10 06:36:49;;;;;;;78.07;25.70;;;3.20;100.00;;;;;;5003353;28;21142;-75
2024/03/10 06:39:19;;;;;;;74.15;25.75;;;3.30;100.00;;;;;;5004186;28;20049;-75
2024/03/10 06:41:47;;;;;;;76.03;27.45;;;3.40;100.00;;;;;;5001048;28;20166;-75
2024/03/10 06:44:15;;;;;;;76.40;27.33;;;3.40;100.00;;;;;;4992462;28;20054;-75
2024/03/10 06:46:42;;;;;;;73.35;24.40;;;3.50;100.00;;;;;;4999100;28;20108;-74
2024/03/10 06:49:09;;;;;;;74.85;25.00;;;3.60;100.00;;;;;;4999479;28;20049;-75
2024/03/10 06:51:36;;;;;;;68.25;25.38;;;3.60;100.00;;;;;;5003481;28;20057;-75
2024/03/10 06:54:03;;;;;;;67.00;24.63;;;3.70;100.00;;;;;;4999933;28;20062;-76
2024/03/10 06:56:30;;;;;;;75.63;25.05;;;3.80;100.00;;;;;;4991890;28;20053;-76
2024/03/10 06:58:57;;;;;;;69.32;25.92;;;3.80;100.00;;;;;;5000681;28;20162;-75
2024/03/10 07:01:25;;;;;;;65.88;25.60;;;3.90;100.00;;;;;;5001576;28;20791;-76
2024/03/10 07:03:52;;;;;;;69.55;25.23;;;4.00;100.00;;;;;;5001922;28;20054;-76
2024/03/10 07:06:22;;;;;;;72.63;25.25;;;4.10;100.00;;;;;;4999287;28;20549;-75
2024/03/10 07:08:49;;;;;;;71.57;25.33;;;4.20;100.00;;;;;;5001288;28;20060;-75
2024/03/10 07:11:16;;;;;;;81.90;25.38;;;4.30;100.00;;;;;;5000943;28;20132;-75
2024/03/10 07:13:43;;;;;;;75.72;26.13;;;4.40;100.00;;;;;;5003799;28;20050;-75
2024/03/10 07:16:10;;;;;;;69.28;25.38;;;4.60;100.00;;;;;;5000710;28;20073;-75
2024/03/10 07:18:37;;;;;;;75.53;26.38;;;4.70;100.00;;;;;;5003004;28;20077;-75
2024/03/10 07:21:05;;;;;;;71.10;24.42;;;4.80;100.00;;;;;;5002874;28;20544;-75
2024/03/10 07:23:32;;;;;;;78.38;25.80;;;5.00;100.00;;;;;;5003376;28;20062;-75
2024/03/10 07:26:00;;;;;;;74.47;26.05;;;5.20;100.00;;;;;;5002715;28;20125;-75
2024/03/10 07:28:27;;;;;;;73.45;25.05;;;5.40;100.00;;;;;;4998872;28;20104;-75
2024/03/10 07:30:54;;;;;;;71.50;26.15;;;5.50;100.00;;;;;;4998616;28;20188;-75
2024/03/10 07:33:22;;;;;;;66.78;24.95;;;5.70;100.00;;;;;;5002355;28;20132;-75
2024/03/10 07:35:49;;;;;;;63.20;23.65;;;5.70;100.00;;;;;;5000146;28;20053;-75
2024/03/10 07:38:15;;;;;;;65.05;25.70;;;5.80;100.00;;;;;;4991416;28;20050;-75
2024/03/10 07:40:42;;;;;;;68.97;26.60;;;5.90;100.00;;;;;;4999150;28;20077;-76
2024/03/10 07:43:09;;;;;;;70.15;26.83;;;6.00;100.00;;;;;;5002994;28;20054;-78
2024/03/10 07:45:36;;;;;;;67.32;26.63;;;6.20;100.00;;;;;;5002899;28;20434;-80
2024/03/10 07:48:05;;;;;;;72.85;27.92;;;6.30;100.00;;;;;;5008938;28;20717;-77
2024/03/10 07:50:35;;;;;;;70.07;26.77;;;6.50;100.00;;;;;;5008245;28;20054;-75
2024/03/10 07:53:02;;;;;;;65.93;25.85;;;6.60;100.00;;;;;;5006566;28;20057;-77
2024/03/10 07:55:30;;;;;;;68.38;26.85;;;6.80;100.00;;;;;;5005464;28;20169;-79
2024/03/10 07:57:58;;;;;;;76.20;27.80;;;7.00;100.00;;;;;;5004146;28;20414;-76
2024/03/10 08:00:26;;;;;;;60.92;25.48;;;7.00;100.00;;;;;;4999762;28;20048;-77
2024/03/10 08:02:56;;;;;;;65.88;26.27;;;7.10;100.00;;;;;;5006871;28;20061;-79
2024/03/10 08:05:22;;;;;;;66.80;23.75;;;7.30;100.00;;;;;;5007483;28;20739;-79
2024/03/10 08:07:50;;;;;;;72.25;27.10;;;7.80;100.00;;;;;;5006601;28;20537;-79
2024/03/10 08:10:18;;;;;;;65.60;24.88;;;8.30;100.00;;;;;;5009794;28;20056;-79
2024/03/10 08:12:46;;;;;;;65.85;25.73;;;8.50;100.00;;;;;;5009449;28;20073;-80
2024/03/10 08:15:14;;;;;;;55.10;24.42;;;9.00;100.00;;;;;;5006695;28;20161;-74
2024/03/10 08:17:44;;;;;;;59.92;25.45;;;9.40;100.00;;;;;;5008608;28;20052;-76
2024/03/10 08:20:13;;;;;;;64.13;25.00;;;9.60;100.00;;;;;;5006802;28;20077;-75
2024/03/10 08:22:42;;;;;;;63.30;25.25;;;9.80;100.00;;;;;;5009542;28;20068;-76
2024/03/10 08:25:10;;;;;;;62.78;25.65;;;9.60;100.00;;;;;;5005326;28;20045;-75
2024/03/10 08:27:37;;;;;;;60.85;25.40;;;9.90;100.00;;;;;;5006647;28;20136;-76
2024/03/10 08:30:11;;;;;;;66.90;26.13;;;10.10;100.00;;;;;;5019452;28;20151;-76
2024/03/10 08:32:38;;;;;;;63.75;25.85;;;10.20;100.00;;;;;;5004926;28;20491;-77
2024/03/10 08:35:08;;;;;;;66.65;24.92;;;10.10;100.00;;;;;;5006323;28;20060;-76
2024/03/10 08:37:41;;;;;;;68.10;27.20;;;9.80;100.00;;;;;;5010569;28;20509;-78
2024/03/10 08:40:12;;;;;;;69.45;28.73;;;9.70;100.00;;;;;;5002048;28;20120;-77
2024/03/10 08:42:42;;;;;;;63.70;26.52;;;9.60;100.00;;;;;;5005055;28;20046;-75
2024/03/10 08:45:11;;;;;;;60.05;26.15;;;9.40;100.00;;;;;;5001735;28;20668;-77
2024/03/10 08:47:39;;;;;;;69.72;28.05;;;9.30;100.00;;;;;;5004260;28;20053;-76
2024/03/10 08:50:11;;;;;;;61.40;24.17;;;9.30;100.00;;;;;;4996456;28;20050;-76
2024/03/10 08:52:39;;;;;;;62.75;25.35;;;9.10;100.00;;;;;;5003596;28;20073;-78
2024/03/10 08:55:07;;;;;;;66.15;26.02;;;9.10;100.00;;;;;;4996593;28;20081;-78
2024/03/10 08:57:35;;;;;;;65.50;26.98;;;9.10;100.00;;;;;;5004351;28;20779;-78
2024/03/10 09:00:03;;;;;;;61.83;27.02;;;9.10;100.00;;;;;;5004316;28;20574;-79
2024/03/10 09:02:30;;;;;;;62.83;26.10;;;9.00;100.00;;;;;;5005365;28;20506;-78
2024/03/10 09:04:57;;;;;;;65.57;25.77;;;9.10;100.00;;;;;;5004774;28;20042;-78
2024/03/10 09:07:25;;;;;;;63.00;26.63;;;9.20;100.00;;;;;;5005356;28;20099;-78
2024/03/10 09:09:52;;;;;;;60.17;26.33;;;9.30;100.00;;;;;;5001293;28;20781;-78
2024/03/10 09:12:19;;;;;;;66.63;26.35;;;9.50;100.00;;;;;;5003482;28;20064;-78
2024/03/10 09:14:46;;;;;;;69.90;27.48;;;9.50;100.00;;;;;;5005943;28;20141;-78
2024/03/10 09:17:16;;;;;;;56.97;24.85;;;9.70;100.00;;;;;;5020362;28;20061;-78
2024/03/10 09:19:45;;;;;;;59.17;24.60;;;9.90;100.00;;;;;;4997398;28;20169;-78
2024/03/10 09:22:13;;;;;;;69.07;26.90;;;10.00;100.00;;;;;;5004453;28;20064;-78
2024/03/10 09:24:42;;;;;;;59.63;24.13;;;10.20;100.00;;;;;;5005183;28;20050;-78
2024/03/10 09:27:09;;;;;;;60.83;26.25;;;10.20;100.00;;;;;;5007183;28;20099;-78
2024/03/10 09:29:37;;;;;;;68.10;26.45;;;10.20;100.00;;;;;;5003623;28;20461;-78
2024/03/10 09:32:06;;;;;;;60.25;25.77;;;10.40;100.00;;;;;;4995190;28;20060;-78
2024/03/10 09:34:36;;;;;;;67.05;26.90;;;10.60;100.00;;;;;;5005137;28;20457;-78
2024/03/10 09:37:06;;;;;;;58.72;24.45;;;10.80;100.00;;;;;;4997604;28;20056;-78
2024/03/10 09:39:34;;;;;;;56.15;24.90;;;11.00;100.00;;;;;;5003584;28;20058;-78
2024/03/10 09:42:03;;;;;;;56.80;24.30;;;11.00;100.00;;;;;;5004865;28;20042;-79
2024/03/10 09:44:32;;;;;;;58.88;25.27;;;11.10;100.00;;;;;;5004956;28;20046;-78
2024/03/10 09:47:00;;;;;;;54.13;24.65;;;11.00;100.00;;;;;;5001759;28;20113;-78
2024/03/10 09:49:27;;;;;;;58.17;25.48;;;11.00;100.00;;;;;;5000789;28;20142;-78
2024/03/10 09:51:56;;;;;;;54.05;23.95;;;11.00;100.00;;;;;;5003891;28;20064;-78
2024/03/10 09:54:24;;;;;;;56.83;25.60;;;11.30;100.00;;;;;;5002381;28;20046;-78
2024/03/10 09:56:51;;;;;;;61.30;25.17;;;11.70;100.00;;;;;;5004977;28;20136;-78
2024/03/10 09:59:27;;;;;;;58.70;24.42;;;11.90;100.00;;;;;;5004692;28;20100;-78
2024/03/10 10:01:54;;;;;;;60.70;26.27;;;12.30;100.00;;;;;;5001443;28;20045;-78
2024/03/10 10:04:25;;;;;;;62.83;24.10;;;12.40;100.00;;;;;;5005485;28;20042;-78
2024/03/10 10:06:53;;;;;;;54.83;25.75;;;12.40;100.00;;;;;;5001226;28;20057;-77
2024/03/10 10:09:21;;;;;;;58.83;25.65;;;13.00;100.00;;;;;;5001689;28;20046;-78
2024/03/10 10:11:48;;;;;;;51.90;25.13;;;13.60;100.00;;;;;;5003771;28;20045;-78
2024/03/10 10:14:15;;;;;;;57.42;23.33;;;13.90;100.00;;;;;;5000976;28;20043;-79
2024/03/10 10:16:55;;;;;;;55.88;23.50;;;14.40;100.00;;;;;;5002549;28;20774;-79
2024/03/10 10:19:26;;;;;;;50.65;23.92;;;14.50;100.00;;;;;;4999334;28;20059;-79
2024/03/10 10:21:53;;;;;;;56.72;24.02;;;14.70;100.00;;;;;;5000461;28;20049;-79
2024/03/10 10:24:21;;;;;;;48.20;23.77;;;14.60;100.00;;;;;;5004370;28;20050;-79
2024/03/10 10:27:03;;;;;;;58.63;24.33;;;14.60;100.00;;;;;;5003490;28;20135;-79
2024/03/10 10:29:47;;;;;;;53.78;23.95;;;15.00;100.00;;;;;;5004633;28;20159;-79
2024/03/10 10:32:20;;;;;;;49.17;24.20;;;15.20;100.00;;;;;;4999396;28;20038;-78
2024/03/10 10:34:47;;;;;;;51.00;22.73;;;15.40;100.00;;;;;;5001739;28;20558;-79
2024/03/10 10:37:13;;;;;;;49.42;22.77;;;15.40;100.00;;;;;;5004952;28;20091;-78
2024/03/10 10:39:41;;;;;;;51.60;23.83;;;16.20;100.00;;;;;;5001833;28;20495;-79
2024/03/10 10:42:08;;;;;;;47.58;22.98;;;16.70;100.00;;;;;;4990971;28;20046;-79
2024/03/10 10:44:46;;;;;;;46.35;23.48;;;17.30;100.00;;;;;;4997355;28;20056;-79
2024/03/10 10:47:15;;;;;;;42.50;22.67;;;17.40;100.00;;;;;;5002861;28;20054;-79
2024/03/10 10:49:42;;;;;;;50.67;24.15;;;17.40;93.10;;;;;;5002426;28;20716;-79
2024/03/10 10:52:11;;;;;;;45.72;24.15;;;17.20;98.40;;;;;;5003193;28;20060;-79
2024/03/10 10:54:40;;;;;;;47.20;23.52;;;17.20;93.20;;;;;;5003356;28;20099;-79
2024/03/10 10:57:08;;;;;;;44.72;22.35;;;17.30;93.10;;;;;;5002676;28;20053;-77
2024/03/10 10:59:37;;;;;;;43.38;23.17;;;17.80;87.60;;;;;;5000332;28;20734;-79
2024/03/10 11:02:07;;;;;;;49.38;23.83;;;18.00;85.70;;;;;;5010438;28;20042;-77
2024/03/10 11:04:37;;;;;;;44.15;23.15;;;17.70;85.80;;;;;;5000488;28;20056;-77
2024/03/10 11:07:05;;;;;;;45.97;23.60;;;16.70;87.70;;;;;;5000386;28;20540;-77
2024/03/10 11:09:32;;;;;;;47.08;21.77;;;16.60;97.50;;;;;;5002050;28;20054;-77
2024/03/10 11:12:16;;;;;;;42.58;22.40;;;16.10;93.80;;;;;;4999282;28;20140;-77
2024/03/10 11:14:46;;;;;;;46.40;21.92;;;15.80;95.60;;;;;;4997718;28;20077;-77
2024/03/10 11:17:18;;;;;;;45.55;22.75;;;15.70;98.40;;;;;;5004571;28;20052;-79
2024/03/10 11:19:50;;;;;;;46.80;22.67;;;15.70;97.70;;;;;;5009104;28;20061;-77
2024/03/10 11:22:20;;;;;;;45.95;22.73;;;15.70;95.90;;;;;;5004806;28;20754;-77
2024/03/10 11:25:08;;;;;;;48.63;21.48;;;15.30;97.30;;;;;;5000359;28;20045;-77
2024/03/10 11:27:42;;;;;;;44.40;20.92;;;15.60;97.80;;;;;;5005769;28;20050;-77
2024/03/10 11:30:46;;;;;;;44.22;20.55;;;16.30;94.00;;;;;;5003881;28;20056;-77
2024/03/10 11:33:13;;;;;;;44.40;21.98;;;16.40;89.40;;;;;;5003421;28;20058;-77
2024/03/10 11:35:41;;;;;;;41.83;21.77;;;16.30;93.70;;;;;;5005523;28;20131;-76
2024/03/10 11:38:09;;;;;;;44.90;20.88;;;16.60;91.70;;;;;;5004472;28;20050;-77
2024/03/10 11:40:36;;;;;;;41.85;21.30;;;16.70;90.20;;;;;;5006495;28;20056;-75
2024/03/10 11:43:03;;;;;;;47.28;21.35;;;16.40;91.50;;;;;;5005938;28;20042;-76
2024/03/10 11:45:34;;;;;;;43.42;22.08;;;16.40;92.20;;;;;;5001518;28;20139;-76
2024/03/10 11:48:01;;;;;;;43.65;21.58;;;16.70;90.30;;;;;;5005025;28;20851;-75
2024/03/10 11:50:29;;;;;;;49.00;22.55;;;16.60;88.10;;;;;;5007238;28;20042;-77
2024/03/10 11:52:57;;;;;;;43.60;21.13;;;16.70;88.30;;;;;;5005854;28;20069;-76
2024/03/10 11:55:24;;;;;;;44.05;21.58;;;16.60;89.70;;;;;;5005326;28;20900;-70
2024/03/10 11:57:55;;;;;;;41.65;21.27;;;16.40;90.60;;;;;;5003684;28;20382;-69
2024/03/10 12:00:23;;;;;;;45.63;21.92;;;16.40;89.60;;;;;;5004463;28;20054;-70
2024/03/10 12:02:54;;;;;;;48.17;22.92;;;16.80;89.60;;;;;;5005463;28;20054;-69
2024/03/10 12:05:22;;;;;;;46.10;21.40;;;17.20;85.90;;;;;;4998163;28;20046;-69
2024/03/10 12:07:54;;;;;;;43.80;22.73;;;17.20;87.20;;;;;;5006614;28;20123;-68
2024/03/10 12:10:23;;;;;;;43.95;21.48;;;17.30;83.30;;;;;;5002097;28;20757;-69
2024/03/10 12:12:51;;;;;;;47.65;22.10;;;16.90;84.60;;;;;;5009787;28;20049;-69
2024/03/10 12:15:19;;;;;;;44.20;21.48;;;17.00;86.30;;;;;;5002842;28;20137;-72
2024/03/10 12:17:53;;;;;;;44.78;21.95;;;17.10;85.80;;;;;;5004986;28;20127;-71
2024/03/10 12:20:22;;;;;;;56.17;22.80;;;17.60;79.40;;;;;;5003440;28;20056;-69
2024/03/10 12:22:50;;;;;;;46.70;22.10;;;17.30;83.00;;;;;;5009012;28;20128;-69
2024/03/10 12:25:20;;;;;;;46.03;21.92;;;17.00;83.30;;;;;;5005764;28;20486;-69
2024/03/10 12:27:48;;;;;;;49.92;22.80;;;16.90;84.00;;;;;;5005690;28;20053;-68
2024/03/10 12:30:17;;;;;;;50.05;22.27;;;16.90;80.50;;;;;;5005425;28;20133;-67
2024/03/10 12:32:51;;;;;;;41.50;20.33;;;16.60;84.20;;;;;;5003284;28;20578;-69
2024/03/10 12:35:20;;;;;;;44.17;21.83;;;16.40;84.90;;;;;;5005145;28;20414;-69
2024/03/10 12:37:47;;;;;;;46.13;20.75;;;16.80;83.70;;;;;;5004978;28;20050;-70
2024/03/10 12:40:16;;;;;;;52.83;22.20;;;17.40;81.60;;;;;;5003386;28;20054;-70
2024/03/10 12:42:46;;;;;;;44.47;20.83;;;17.70;77.20;;;;;;5005650;28;20125;-70
2024/03/10 12:45:15;;;;;;;42.95;21.60;;;17.60;78.00;;;;;;5014726;28;20054;-69
2024/03/10 12:47:44;;;;;;;48.60;22.70;;;17.60;77.70;;;;;;5002018;28;20060;-68
2024/03/10 12:50:13;;;;;;;51.03;22.63;;;17.50;78.70;;;;;;5009679;28;20049;-70
2024/03/10 12:52:40;;;;;;;48.35;22.77;;;17.50;78.80;;;;;;5010983;28;20058;-71
2024/03/10 12:55:09;;;;;;;43.88;21.83;;;17.00;80.20;;;;;;5007377;28;20054;-70
2024/03/10 12:57:37;;;;;;;43.75;20.45;;;17.10;79.40;;;;;;5009806;28;20056;-71
2024/03/10 13:00:16;;;;;;;46.80;21.83;;;17.60;76.90;;;;;;5006748;28;20104;-73
2024/03/10 13:02:42;;;;;;;50.83;21.92;;;17.70;78.00;;;;;;5002048;28;20056;-70
2024/03/10 13:05:09;;;;;;;45.90;22.90;;;18.00;72.20;;;;;;5009602;28;20045;-70